sensor_id;sensor_type;location;lat;lon;timestamp;temperature;humidity
8953;DHT22;4511;50.890;8.054;2022-11-15T00:01:40;11.10;99.90
8953;DHT22;4511;50.890;8.054;2022-11-15T00:04:07;11.10;99.90
8953;DHT22;4511;50.890;8.054;2022-11-15T00:06:35;11.00;99.90
8953;DHT22;4511;50.890;8.054;2022-11-15T00:09:06;11.10;99.90
8953;DHT22;4511;50.890;8.054;2022-11-15T00:11:37;11.10;99.90
8953;DHT22;4511;50.890;8.054;2022-11-15T00:14:08;11.10;99.90
8953;DHT22;4511;50.890;8.054;2022-11-15T00:16:35;11.10;99.90
8953;DHT22;4511;50.890;8.054;2022-11-15T00:19:02;11.10;99.90
8953;DHT22;4511;50.890;8.054;2022-11-15T00:21:29;11.10;99.90
8953;DHT22;4511;50.890;8.054;2022-11-15T00:23:56;11.10;99.90
8953;DHT22;4511;50.890;8.054;2022-11-15T00:26:24;11.10;99.90
8953;DHT22;4511;50.890;8.054;2022-11-15T00:28:52;11.10;99.90
8953;DHT22;4511;50.890;8.054;2022-11-15T00:31:23;11.10;99.90
8953;DHT22;4511;50.890;8.054;2022-11-15T00:33:50;11.10;99.90
8953;DHT22;4511;50.890;8.054;2022-11-15T00:36:17;11.20;99.90
8953;DHT22;4511;50.890;8.054;2022-11-15T00:38:43;11.20;99.90
8953;DHT22;4511;50.890;8.054;2022-11-15T00:41:10;11.20;99.90
8953;DHT22;4511;50.890;8.054;2022-11-15T00:43:37;11.20;99.90
8953;DHT22;4511;50.890;8.054;2022-11-15T00:46:05;11.20;99.90
8953;DHT22;4511;50.890;8.054;2022-11-15T00:48:35;11.20;99.90
8953;DHT22;4511;50.890;8.054;2022-11-15T00:51:01;11.20;99.90
8953;DHT22;4511;50.890;8.054;2022-11-15T00:53:28;11.20;99.90
8953;DHT22;4511;50.890;8.054;2022-11-15T00:55:55;11.20;99.90
8953;DHT22;4511;50.890;8.054;2022-11-15T00:58:22;11.20;99.90
8953;DHT22;4511;50.890;8.054;2022-11-15T01:00:49;11.30;99.90
8953;DHT22;4511;50.890;8.054;2022-11-15T01:03:16;11.20;99.90
8953;DHT22;4511;50.890;8.054;2022-11-15T01:05:44;11.30;99.90
8953;DHT22;4511;50.890;8.054;2022-11-15T01:08:12;11.30;99.90
8953;DHT22;4511;50.890;8.054;2022-11-15T01:10:39;11.30;99.90
8953;DHT22;4511;50.890;8.054;2022-11-15T01:13:07;11.20;99.90
8953;DHT22;4511;50.890;8.054;2022-11-15T01:15:38;11.30;99.90
8953;DHT22;4511;50.890;8.054;2022-11-15T01:18:05;11.20;99.90
8953;DHT22;4511;50.890;8.054;2022-11-15T01:20:31;11.30;99.90
8953;DHT22;4511;50.890;8.054;2022-11-15T01:23:00;11.20;99.90
8953;DHT22;4511;50.890;8.054;2022-11-15T01:25:26;11.20;99.90
8953;DHT22;4511;50.890;8.054;2022-11-15T01:27:53;11.30;99.90
8953;DHT22;4511;50.890;8.054;2022-11-15T01:30:20;11.20;99.90
8953;DHT22;4511;50.890;8.054;2022-11-15T01:32:46;11.20;99.90
8953;DHT22;4511;50.890;8.054;2022-11-15T01:35:14;11.20;99.90
8953;DHT22;4511;50.890;8.054;2022-11-15T01:37:42;11.20;99.90
8953;DHT22;4511;50.890;8.054;2022-11-15T01:40:10;11.20;99.90
8953;DHT22;4511;50.890;8.054;2022-11-15T01:42:37;11.20;99.90
8953;DHT22;4511;50.890;8.054;2022-11-15T01:45:05;11.20;99.90
8953;DHT22;4511;50.890;8.054;2022-11-15T01:47:36;11.20;99.90
8953;DHT22;4511;50.890;8.054;2022-11-15T01:50:08;11.20;99.90
8953;DHT22;4511;50.890;8.054;2022-11-15T01:52:37;11.20;99.90
8953;DHT22;4511;50.890;8.054;2022-11-15T01:55:09;11.20;99.90
8953;DHT22;4511;50.890;8.054;2022-11-15T01:57:40;11.20;99.90
8953;DHT22;4511;50.890;8.054;2022-11-15T02:00:09;11.20;99.90
8953;DHT22;4511;50.890;8.054;2022-11-15T02:02:37;11.20;99.90
8953;DHT22;4511;50.890;8.054;2022-11-15T02:05:06;11.20;99.90
8953;DHT22;4511;50.890;8.054;2022-11-15T02:07:34;11.20;99.90
8953;DHT22;4511;50.890;8.054;2022-11-15T02:10:06;11.20;99.90
8953;DHT22;4511;50.890;8.054;2022-11-15T02:12:35;11.20;99.90
8953;DHT22;4511;50.890;8.054;2022-11-15T02:15:04;11.20;99.90
8953;DHT22;4511;50.890;8.054;2022-11-15T02:17:42;11.20;99.90
8953;DHT22;4511;50.890;8.054;2022-11-15T02:20:47;11.10;99.90
8953;DHT22;4511;50.890;8.054;2022-11-15T02:23:45;11.00;99.90
8953;DHT22;4511;50.890;8.054;2022-11-15T02:26:30;11.00;99.90
8953;DHT22;4511;50.890;8.054;2022-11-15T02:29:07;11.00;99.90
8953;DHT22;4511;50.890;8.054;2022-11-15T02:31:44;11.00;99.90
8953;DHT22;4511;50.890;8.054;2022-11-15T02:34:27;10.90;99.90
8953;DHT22;4511;50.890;8.054;2022-11-15T02:37:02;10.90;99.90
8953;DHT22;4511;50.890;8.054;2022-11-15T02:39:35;10.80;99.90
8953;DHT22;4511;50.890;8.054;2022-11-15T02:42:08;10.80;99.90
8953;DHT22;4511;50.890;8.054;2022-11-15T02:45:02;10.80;99.90
8953;DHT22;4511;50.890;8.054;2022-11-15T02:47:35;10.80;99.90
8953;DHT22;4511;50.890;8.054;2022-11-15T02:50:07;10.80;99.90
8953;DHT22;4511;50.890;8.054;2022-11-15T02:52:35;10.80;99.90
8953;DHT22;4511;50.890;8.054;2022-11-15T02:55:02;10.80;99.90
8953;DHT22;4511;50.890;8.054;2022-11-15T02:57:43;10.80;99.90
8953;DHT22;4511;50.890;8.054;2022-11-15T03:00:12;10.80;99.90
8953;DHT22;4511;50.890;8.054;2022-11-15T03:03:11;10.80;99.90
8953;DHT22;4511;50.890;8.054;2022-11-15T03:05:50;10.80;99.90
8953;DHT22;4511;50.890;8.054;2022-11-15T03:08:25;10.80;99.90
8953;DHT22;4511;50.890;8.054;2022-11-15T03:11:03;10.80;99.90
8953;DHT22;4511;50.890;8.054;2022-11-15T03:13:35;10.80;99.90
8953;DHT22;4511;50.890;8.054;2022-11-15T03:16:06;10.80;99.90
8953;DHT22;4511;50.890;8.054;2022-11-15T03:18:37;10.70;99.90
8953;DHT22;4511;50.890;8.054;2022-11-15T03:21:08;10.70;99.90
8953;DHT22;4511;50.890;8.054;2022-11-15T03:23:37;10.80;99.90
8953;DHT22;4511;50.890;8.054;2022-11-15T03:26:08;10.80;99.90
8953;DHT22;4511;50.890;8.054;2022-11-15T03:28:38;10.80;99.90
8953;DHT22;4511;50.890;8.054;2022-11-15T03:31:05;10.80;99.90
8953;DHT22;4511;50.890;8.054;2022-11-15T03:33:50;10.80;99.90
8953;DHT22;4511;50.890;8.054;2022-11-15T03:36:18;10.80;99.90
8953;DHT22;4511;50.890;8.054;2022-11-15T03:38:45;10.80;99.90
8953;DHT22;4511;50.890;8.054;2022-11-15T03:41:16;10.80;99.90
8953;DHT22;4511;50.890;8.054;2022-11-15T03:43:49;10.80;99.90
8953;DHT22;4511;50.890;8.054;2022-11-15T03:46:23;10.80;99.90
8953;DHT22;4511;50.890;8.054;2022-11-15T03:48:57;10.80;99.90
8953;DHT22;4511;50.890;8.054;2022-11-15T03:51:26;10.80;99.90
8953;DHT22;4511;50.890;8.054;2022-11-15T03:53:52;10.80;99.90
8953;DHT22;4511;50.890;8.054;2022-11-15T03:56:19;10.80;99.90
8953;DHT22;4511;50.890;8.054;2022-11-15T03:58:46;10.80;99.90
8953;DHT22;4511;50.890;8.054;2022-11-15T04:01:13;10.90;99.90
8953;DHT22;4511;50.890;8.054;2022-11-15T04:03:40;10.90;99.90
8953;DHT22;4511;50.890;8.054;2022-11-15T04:06:09;10.90;99.90
8953;DHT22;4511;50.890;8.054;2022-11-15T04:08:36;10.90;99.90
8953;DHT22;4511;50.890;8.054;2022-11-15T04:11:03;10.80;99.90
8953;DHT22;4511;50.890;8.054;2022-11-15T04:13:30;10.80;99.90
8953;DHT22;4511;50.890;8.054;2022-11-15T04:15:56;10.90;99.90
8953;DHT22;4511;50.890;8.054;2022-11-15T04:18:23;10.80;99.90
8953;DHT22;4511;50.890;8.054;2022-11-15T04:20:50;10.80;99.90
8953;DHT22;4511;50.890;8.054;2022-11-15T04:23:35;10.80;99.90
8953;DHT22;4511;50.890;8.054;2022-11-15T04:26:28;10.80;99.90
8953;DHT22;4511;50.890;8.054;2022-11-15T04:28:54;10.80;99.90
8953;DHT22;4511;50.890;8.054;2022-11-15T04:31:39;10.80;99.90
8953;DHT22;4511;50.890;8.054;2022-11-15T04:34:05;10.80;99.90
8953;DHT22;4511;50.890;8.054;2022-11-15T04:36:32;10.80;99.90
8953;DHT22;4511;50.890;8.054;2022-11-15T04:39:14;10.80;99.90
8953;DHT22;4511;50.890;8.054;2022-11-15T04:41:41;10.80;99.90
8953;DHT22;4511;50.890;8.054;2022-11-15T04:44:08;10.80;99.90
8953;DHT22;4511;50.890;8.054;2022-11-15T04:46:35;10.80;99.90
8953;DHT22;4511;50.890;8.054;2022-11-15T04:49:01;10.80;99.90
8953;DHT22;4511;50.890;8.054;2022-11-15T04:51:28;10.80;99.90
8953;DHT22;4511;50.890;8.054;2022-11-15T04:53:55;10.80;99.90
8953;DHT22;4511;50.890;8.054;2022-11-15T04:56:23;10.80;99.90
8953;DHT22;4511;50.890;8.054;2022-11-15T04:58:50;10.80;99.90
8953;DHT22;4511;50.890;8.054;2022-11-15T05:01:17;10.90;99.90
8953;DHT22;4511;50.890;8.054;2022-11-15T05:03:44;10.90;99.90
8953;DHT22;4511;50.890;8.054;2022-11-15T05:06:29;10.90;99.90
8953;DHT22;4511;50.890;8.054;2022-11-15T05:08:56;10.90;99.90
8953;DHT22;4511;50.890;8.054;2022-11-15T05:11:24;10.90;99.90
8953;DHT22;4511;50.890;8.054;2022-11-15T05:13:52;10.90;99.90
8953;DHT22;4511;50.890;8.054;2022-11-15T05:16:19;10.90;99.90
8953;DHT22;4511;50.890;8.054;2022-11-15T05:18:46;10.80;99.90
8953;DHT22;4511;50.890;8.054;2022-11-15T05:21:14;10.90;99.90
8953;DHT22;4511;50.890;8.054;2022-11-15T05:23:41;10.90;99.90
8953;DHT22;4511;50.890;8.054;2022-11-15T05:26:09;10.90;99.90
8953;DHT22;4511;50.890;8.054;2022-11-15T05:28:37;10.90;99.90
8953;DHT22;4511;50.890;8.054;2022-11-15T05:31:05;10.90;99.90
8953;DHT22;4511;50.890;8.054;2022-11-15T05:33:33;10.90;99.90
8953;DHT22;4511;50.890;8.054;2022-11-15T05:36:05;10.90;99.90
8953;DHT22;4511;50.890;8.054;2022-11-15T05:38:33;10.90;99.90
8953;DHT22;4511;50.890;8.054;2022-11-15T05:41:01;10.90;99.90
8953;DHT22;4511;50.890;8.054;2022-11-15T05:43:29;10.90;99.90
8953;DHT22;4511;50.890;8.054;2022-11-15T05:46:00;10.90;99.90
8953;DHT22;4511;50.890;8.054;2022-11-15T05:48:27;10.90;99.90
8953;DHT22;4511;50.890;8.054;2022-11-15T05:50:54;10.90;99.90
8953;DHT22;4511;50.890;8.054;2022-11-15T05:53:23;11.00;99.90
8953;DHT22;4511;50.890;8.054;2022-11-15T05:55:51;11.10;99.90
8953;DHT22;4511;50.890;8.054;2022-11-15T05:58:18;11.20;99.90
8953;DHT22;4511;50.890;8.054;2022-11-15T06:00:46;11.20;99.90
8953;DHT22;4511;50.890;8.054;2022-11-15T06:03:14;11.10;99.90
8953;DHT22;4511;50.890;8.054;2022-11-15T06:05:41;11.10;99.90
8953;DHT22;4511;50.890;8.054;2022-11-15T06:08:08;11.10;99.90
8953;DHT22;4511;50.890;8.054;2022-11-15T06:10:35;11.10;99.90
8953;DHT22;4511;50.890;8.054;2022-11-15T06:13:03;11.00;99.90
8953;DHT22;4511;50.890;8.054;2022-11-15T06:15:32;11.00;99.90
8953;DHT22;4511;50.890;8.054;2022-11-15T06:18:00;11.00;99.90
8953;DHT22;4511;50.890;8.054;2022-11-15T06:20:29;11.00;99.90
8953;DHT22;4511;50.890;8.054;2022-11-15T06:22:57;10.90;99.90
8953;DHT22;4511;50.890;8.054;2022-11-15T06:25:24;10.90;99.90
8953;DHT22;4511;50.890;8.054;2022-11-15T06:27:51;10.90;99.90
8953;DHT22;4511;50.890;8.054;2022-11-15T06:30:18;10.80;99.90
8953;DHT22;4511;50.890;8.054;2022-11-15T06:32:45;10.90;99.90
8953;DHT22;4511;50.890;8.054;2022-11-15T06:35:13;10.90;99.90
8953;DHT22;4511;50.890;8.054;2022-11-15T06:37:41;10.80;99.90
8953;DHT22;4511;50.890;8.054;2022-11-15T06:40:10;10.90;99.90
8953;DHT22;4511;50.890;8.054;2022-11-15T06:42:37;10.80;99.90
8953;DHT22;4511;50.890;8.054;2022-11-15T06:45:05;10.80;99.90
8953;DHT22;4511;50.890;8.054;2022-11-15T06:47:32;10.70;99.90
8953;DHT22;4511;50.890;8.054;2022-11-15T06:50:00;10.70;99.90
8953;DHT22;4511;50.890;8.054;2022-11-15T06:52:29;10.70;99.90
8953;DHT22;4511;50.890;8.054;2022-11-15T06:54:59;10.70;99.90
8953;DHT22;4511;50.890;8.054;2022-11-15T06:57:26;10.60;99.90
8953;DHT22;4511;50.890;8.054;2022-11-15T06:59:54;10.70;99.90
8953;DHT22;4511;50.890;8.054;2022-11-15T07:02:21;10.60;99.90
8953;DHT22;4511;50.890;8.054;2022-11-15T07:04:48;10.70;99.90
8953;DHT22;4511;50.890;8.054;2022-11-15T07:07:15;10.70;99.90
8953;DHT22;4511;50.890;8.054;2022-11-15T07:09:41;10.70;99.90
8953;DHT22;4511;50.890;8.054;2022-11-15T07:12:09;10.70;99.90
8953;DHT22;4511;50.890;8.054;2022-11-15T07:14:36;10.70;99.90
8953;DHT22;4511;50.890;8.054;2022-11-15T07:17:03;10.70;99.90
8953;DHT22;4511;50.890;8.054;2022-11-15T07:19:30;10.70;99.90
8953;DHT22;4511;50.890;8.054;2022-11-15T07:21:57;10.80;99.90
8953;DHT22;4511;50.890;8.054;2022-11-15T07:24:24;10.80;99.90
8953;DHT22;4511;50.890;8.054;2022-11-15T07:26:53;10.80;99.90
8953;DHT22;4511;50.890;8.054;2022-11-15T07:29:22;10.80;99.90
8953;DHT22;4511;50.890;8.054;2022-11-15T07:31:49;10.90;99.90
8953;DHT22;4511;50.890;8.054;2022-11-15T07:34:16;10.90;99.90
8953;DHT22;4511;50.890;8.054;2022-11-15T07:36:42;10.90;99.90
8953;DHT22;4511;50.890;8.054;2022-11-15T07:39:10;10.90;99.90
8953;DHT22;4511;50.890;8.054;2022-11-15T07:41:37;10.90;99.90
8953;DHT22;4511;50.890;8.054;2022-11-15T07:44:05;10.90;99.90
8953;DHT22;4511;50.890;8.054;2022-11-15T07:46:33;10.90;99.90
8953;DHT22;4511;50.890;8.054;2022-11-15T07:49:01;11.00;99.90
8953;DHT22;4511;50.890;8.054;2022-11-15T07:51:27;11.00;99.90
8953;DHT22;4511;50.890;8.054;2022-11-15T07:53:54;11.00;99.90
8953;DHT22;4511;50.890;8.054;2022-11-15T07:56:21;11.00;99.90
8953;DHT22;4511;50.890;8.054;2022-11-15T07:58:49;11.00;99.90
8953;DHT22;4511;50.890;8.054;2022-11-15T08:01:15;11.00;99.90
8953;DHT22;4511;50.890;8.054;2022-11-15T08:03:43;11.10;99.90
8953;DHT22;4511;50.890;8.054;2022-11-15T08:06:10;11.10;99.90
8953;DHT22;4511;50.890;8.054;2022-11-15T08:08:37;11.10;99.90
8953;DHT22;4511;50.890;8.054;2022-11-15T08:11:04;11.10;99.90
8953;DHT22;4511;50.890;8.054;2022-11-15T08:13:31;11.10;99.90
8953;DHT22;4511;50.890;8.054;2022-11-15T08:15:58;11.10;99.90
8953;DHT22;4511;50.890;8.054;2022-11-15T08:18:26;11.10;99.90
8953;DHT22;4511;50.890;8.054;2022-11-15T08:20:58;11.20;99.90
8953;DHT22;4511;50.890;8.054;2022-11-15T08:23:25;11.10;99.90
8953;DHT22;4511;50.890;8.054;2022-11-15T08:25:53;11.20;99.90
8953;DHT22;4511;50.890;8.054;2022-11-15T08:28:25;11.20;99.90
8953;DHT22;4511;50.890;8.054;2022-11-15T08:30:51;11.20;99.90
8953;DHT22;4511;50.890;8.054;2022-11-15T08:33:18;11.20;99.90
8953;DHT22;4511;50.890;8.054;2022-11-15T08:35:45;11.30;99.90
8953;DHT22;4511;50.890;8.054;2022-11-15T08:38:13;11.30;99.90
8953;DHT22;4511;50.890;8.054;2022-11-15T08:40:40;11.40;99.90
8953;DHT22;4511;50.890;8.054;2022-11-15T08:43:07;11.50;99.90
8953;DHT22;4511;50.890;8.054;2022-11-15T08:45:34;11.60;99.90
8953;DHT22;4511;50.890;8.054;2022-11-15T08:48:02;11.80;99.90
8953;DHT22;4511;50.890;8.054;2022-11-15T08:50:29;11.90;99.90
8953;DHT22;4511;50.890;8.054;2022-11-15T08:52:56;12.00;99.90
8953;DHT22;4511;50.890;8.054;2022-11-15T08:55:26;12.00;99.90
8953;DHT22;4511;50.890;8.054;2022-11-15T08:57:53;12.20;99.90
8953;DHT22;4511;50.890;8.054;2022-11-15T09:00:23;12.20;99.90
8953;DHT22;4511;50.890;8.054;2022-11-15T09:02:50;12.30;99.90
8953;DHT22;4511;50.890;8.054;2022-11-15T09:05:17;12.30;99.90
8953;DHT22;4511;50.890;8.054;2022-11-15T09:07:44;12.30;99.90
8953;DHT22;4511;50.890;8.054;2022-11-15T09:10:11;12.30;99.90
8953;DHT22;4511;50.890;8.054;2022-11-15T09:12:39;12.20;99.90
8953;DHT22;4511;50.890;8.054;2022-11-15T09:15:06;12.20;99.90
8953;DHT22;4511;50.890;8.054;2022-11-15T09:17:33;12.10;99.90
8953;DHT22;4511;50.890;8.054;2022-11-15T09:20:00;12.00;99.90
8953;DHT22;4511;50.890;8.054;2022-11-15T09:22:27;12.00;99.90
8953;DHT22;4511;50.890;8.054;2022-11-15T09:24:54;12.00;99.90
8953;DHT22;4511;50.890;8.054;2022-11-15T09:27:22;12.00;99.90
8953;DHT22;4511;50.890;8.054;2022-11-15T09:29:50;12.00;99.90
8953;DHT22;4511;50.890;8.054;2022-11-15T09:32:16;11.90;99.90
8953;DHT22;4511;50.890;8.054;2022-11-15T09:34:43;11.90;99.90
8953;DHT22;4511;50.890;8.054;2022-11-15T09:37:11;11.90;99.90
8953;DHT22;4511;50.890;8.054;2022-11-15T09:39:38;12.00;99.90
8953;DHT22;4511;50.890;8.054;2022-11-15T09:42:27;12.00;99.90
8953;DHT22;4511;50.890;8.054;2022-11-15T09:45:10;12.00;99.90
8953;DHT22;4511;50.890;8.054;2022-11-15T09:47:55;12.00;99.90
8953;DHT22;4511;50.890;8.054;2022-11-15T09:50:32;12.00;99.90
8953;DHT22;4511;50.890;8.054;2022-11-15T09:53:00;12.10;99.90
8953;DHT22;4511;50.890;8.054;2022-11-15T09:55:35;12.10;99.90
8953;DHT22;4511;50.890;8.054;2022-11-15T09:58:16;12.10;99.90
8953;DHT22;4511;50.890;8.054;2022-11-15T10:00:51;12.10;99.90
8953;DHT22;4511;50.890;8.054;2022-11-15T10:03:24;12.10;99.90
8953;DHT22;4511;50.890;8.054;2022-11-15T10:05:55;12.20;99.90
8953;DHT22;4511;50.890;8.054;2022-11-15T10:08:39;12.30;99.90
8953;DHT22;4511;50.890;8.054;2022-11-15T10:11:10;12.40;99.90
8953;DHT22;4511;50.890;8.054;2022-11-15T10:13:41;12.50;99.90
8953;DHT22;4511;50.890;8.054;2022-11-15T10:16:21;12.70;99.90
8953;DHT22;4511;50.890;8.054;2022-11-15T10:18:59;12.80;99.90
8953;DHT22;4511;50.890;8.054;2022-11-15T10:21:34;12.90;99.90
8953;DHT22;4511;50.890;8.054;2022-11-15T10:24:11;12.90;99.90
8953;DHT22;4511;50.890;8.054;2022-11-15T10:26:38;12.90;99.90
8953;DHT22;4511;50.890;8.054;2022-11-15T10:29:05;13.00;99.90
8953;DHT22;4511;50.890;8.054;2022-11-15T10:31:33;12.90;99.90
8953;DHT22;4511;50.890;8.054;2022-11-15T10:34:11;12.80;99.90
8953;DHT22;4511;50.890;8.054;2022-11-15T10:36:44;12.80;99.90
8953;DHT22;4511;50.890;8.054;2022-11-15T10:39:12;12.80;99.90
8953;DHT22;4511;50.890;8.054;2022-11-15T10:41:41;12.80;99.90
8953;DHT22;4511;50.890;8.054;2022-11-15T10:44:26;12.80;99.90
8953;DHT22;4511;50.890;8.054;2022-11-15T10:47:24;12.80;99.90
8953;DHT22;4511;50.890;8.054;2022-11-15T10:49:59;12.80;99.90
8953;DHT22;4511;50.890;8.054;2022-11-15T10:52:28;13.00;99.90
8953;DHT22;4511;50.890;8.054;2022-11-15T10:55:00;12.90;99.90
8953;DHT22;4511;50.890;8.054;2022-11-15T10:57:30;12.90;99.90
8953;DHT22;4511;50.890;8.054;2022-11-15T11:00:00;12.90;99.90
8953;DHT22;4511;50.890;8.054;2022-11-15T11:02:31;12.90;99.90
8953;DHT22;4511;50.890;8.054;2022-11-15T11:04:59;12.80;99.90
8953;DHT22;4511;50.890;8.054;2022-11-15T11:07:28;12.80;99.90
8953;DHT22;4511;50.890;8.054;2022-11-15T11:10:00;12.90;99.90
8953;DHT22;4511;50.890;8.054;2022-11-15T11:12:29;12.90;99.90
8953;DHT22;4511;50.890;8.054;2022-11-15T11:14:58;12.80;99.90
8953;DHT22;4511;50.890;8.054;2022-11-15T11:17:34;12.80;99.90
8953;DHT22;4511;50.890;8.054;2022-11-15T11:20:10;12.80;99.90
8953;DHT22;4511;50.890;8.054;2022-11-15T11:22:52;12.80;99.90
8953;DHT22;4511;50.890;8.054;2022-11-15T11:25:28;12.90;99.90
8953;DHT22;4511;50.890;8.054;2022-11-15T11:28:10;13.00;99.90
8953;DHT22;4511;50.890;8.054;2022-11-15T11:30:47;13.10;99.90
8953;DHT22;4511;50.890;8.054;2022-11-15T11:33:20;13.10;99.90
8953;DHT22;4511;50.890;8.054;2022-11-15T11:35:59;13.20;99.90
8953;DHT22;4511;50.890;8.054;2022-11-15T11:38:49;13.20;99.90
8953;DHT22;4511;50.890;8.054;2022-11-15T11:41:29;13.30;99.90
8953;DHT22;4511;50.890;8.054;2022-11-15T11:44:11;13.40;99.90
8953;DHT22;4511;50.890;8.054;2022-11-15T11:46:51;13.40;99.90
8953;DHT22;4511;50.890;8.054;2022-11-15T11:49:25;13.50;99.90
8953;DHT22;4511;50.890;8.054;2022-11-15T11:52:00;13.50;99.90
8953;DHT22;4511;50.890;8.054;2022-11-15T11:54:34;13.60;99.90
8953;DHT22;4511;50.890;8.054;2022-11-15T11:57:14;13.60;99.90
8953;DHT22;4511;50.890;8.054;2022-11-15T11:59:45;13.60;99.90
8953;DHT22;4511;50.890;8.054;2022-11-15T12:02:18;13.70;99.90
8953;DHT22;4511;50.890;8.054;2022-11-15T12:04:50;13.80;99.90
8953;DHT22;4511;50.890;8.054;2022-11-15T12:07:23;14.10;99.90
8953;DHT22;4511;50.890;8.054;2022-11-15T12:09:55;14.20;99.90
8953;DHT22;4511;50.890;8.054;2022-11-15T12:12:29;14.30;99.90
8953;DHT22;4511;50.890;8.054;2022-11-15T12:15:00;14.20;99.90
8953;DHT22;4511;50.890;8.054;2022-11-15T12:17:29;14.20;99.90
8953;DHT22;4511;50.890;8.054;2022-11-15T12:20:00;14.10;99.90
8953;DHT22;4511;50.890;8.054;2022-11-15T12:22:36;14.10;99.90
8953;DHT22;4511;50.890;8.054;2022-11-15T12:25:07;14.10;99.90
8953;DHT22;4511;50.890;8.054;2022-11-15T12:27:38;14.10;99.90
8953;DHT22;4511;50.890;8.054;2022-11-15T12:30:11;14.10;99.90
8953;DHT22;4511;50.890;8.054;2022-11-15T12:32:39;14.00;99.90
8953;DHT22;4511;50.890;8.054;2022-11-15T12:35:25;13.90;99.90
8953;DHT22;4511;50.890;8.054;2022-11-15T12:37:53;13.90;99.90
8953;DHT22;4511;50.890;8.054;2022-11-15T12:40:27;13.90;99.90
8953;DHT22;4511;50.890;8.054;2022-11-15T12:45:45;13.80;99.90
8953;DHT22;4511;50.890;8.054;2022-11-15T12:51:19;13.90;99.90
8953;DHT22;4511;50.890;8.054;2022-11-15T12:53:47;13.80;99.90
8953;DHT22;4511;50.890;8.054;2022-11-15T12:56:23;13.80;99.90
8953;DHT22;4511;50.890;8.054;2022-11-15T12:58:55;13.80;99.90
8953;DHT22;4511;50.890;8.054;2022-11-15T13:01:55;13.70;99.90
8953;DHT22;4511;50.890;8.054;2022-11-15T13:04:26;13.70;99.90
8953;DHT22;4511;50.890;8.054;2022-11-15T13:06:57;13.80;99.90
8953;DHT22;4511;50.890;8.054;2022-11-15T13:09:52;13.70;99.90
8953;DHT22;4511;50.890;8.054;2022-11-15T13:12:53;13.80;99.90
8953;DHT22;4511;50.890;8.054;2022-11-15T13:15:38;13.80;99.90
8953;DHT22;4511;50.890;8.054;2022-11-15T13:18:28;13.80;99.90
8953;DHT22;4511;50.890;8.054;2022-11-15T13:20:55;13.70;99.90
8953;DHT22;4511;50.890;8.054;2022-11-15T13:23:25;13.70;99.90
8953;DHT22;4511;50.890;8.054;2022-11-15T13:28:44;13.60;99.90
8953;DHT22;4511;50.890;8.054;2022-11-15T13:31:40;13.60;99.90
8953;DHT22;4511;50.890;8.054;2022-11-15T13:34:28;13.60;99.90
8953;DHT22;4511;50.890;8.054;2022-11-15T13:36:58;13.50;99.90
8953;DHT22;4511;50.890;8.054;2022-11-15T13:39:30;13.50;99.90
8953;DHT22;4511;50.890;8.054;2022-11-15T13:41:58;13.50;99.90
8953;DHT22;4511;50.890;8.054;2022-11-15T13:44:27;13.50;99.90
8953;DHT22;4511;50.890;8.054;2022-11-15T13:47:02;13.50;99.90
8953;DHT22;4511;50.890;8.054;2022-11-15T13:49:30;13.50;99.90
8953;DHT22;4511;50.890;8.054;2022-11-15T13:52:00;13.50;99.90
8953;DHT22;4511;50.890;8.054;2022-11-15T13:54:33;13.50;99.90
8953;DHT22;4511;50.890;8.054;2022-11-15T13:57:03;13.50;99.90
8953;DHT22;4511;50.890;8.054;2022-11-15T13:59:33;13.40;99.90
8953;DHT22;4511;50.890;8.054;2022-11-15T14:02:03;13.40;99.90
8953;DHT22;4511;50.890;8.054;2022-11-15T14:04:39;13.40;99.90
8953;DHT22;4511;50.890;8.054;2022-11-15T14:07:16;13.40;99.90
8953;DHT22;4511;50.890;8.054;2022-11-15T14:09:45;13.30;99.90
8953;DHT22;4511;50.890;8.054;2022-11-15T14:12:34;13.30;99.90
8953;DHT22;4511;50.890;8.054;2022-11-15T14:15:19;13.30;99.90
8953;DHT22;4511;50.890;8.054;2022-11-15T14:17:52;13.20;99.90
8953;DHT22;4511;50.890;8.054;2022-11-15T14:20:24;13.20;99.90
8953;DHT22;4511;50.890;8.054;2022-11-15T14:22:53;13.20;99.90
8953;DHT22;4511;50.890;8.054;2022-11-15T14:25:22;13.10;99.90
8953;DHT22;4511;50.890;8.054;2022-11-15T14:28:11;13.00;99.90
8953;DHT22;4511;50.890;8.054;2022-11-15T14:30:38;13.00;99.90
8953;DHT22;4511;50.890;8.054;2022-11-15T14:33:18;13.00;99.90
8953;DHT22;4511;50.890;8.054;2022-11-15T14:35:45;12.90;99.90
8953;DHT22;4511;50.890;8.054;2022-11-15T14:38:14;12.90;99.90
8953;DHT22;4511;50.890;8.054;2022-11-15T14:40:43;12.80;99.90
8953;DHT22;4511;50.890;8.054;2022-11-15T14:43:10;12.80;99.90
8953;DHT22;4511;50.890;8.054;2022-11-15T14:45:38;12.80;99.90
8953;DHT22;4511;50.890;8.054;2022-11-15T14:48:05;12.70;99.90
8953;DHT22;4511;50.890;8.054;2022-11-15T14:50:33;12.70;99.90
8953;DHT22;4511;50.890;8.054;2022-11-15T14:53:00;12.70;99.90
8953;DHT22;4511;50.890;8.054;2022-11-15T14:55:28;12.70;99.90
8953;DHT22;4511;50.890;8.054;2022-11-15T14:57:58;12.70;99.90
8953;DHT22;4511;50.890;8.054;2022-11-15T15:00:25;12.70;99.90
8953;DHT22;4511;50.890;8.054;2022-11-15T15:02:53;12.60;99.90
8953;DHT22;4511;50.890;8.054;2022-11-15T15:05:23;12.60;99.90
8953;DHT22;4511;50.890;8.054;2022-11-15T15:07:51;12.50;99.90
8953;DHT22;4511;50.890;8.054;2022-11-15T15:10:19;12.60;99.90
8953;DHT22;4511;50.890;8.054;2022-11-15T15:12:47;12.70;99.90
8953;DHT22;4511;50.890;8.054;2022-11-15T15:15:16;12.70;99.90
8953;DHT22;4511;50.890;8.054;2022-11-15T15:17:44;12.70;99.90
8953;DHT22;4511;50.890;8.054;2022-11-15T15:20:10;12.60;99.90
8953;DHT22;4511;50.890;8.054;2022-11-15T15:22:37;12.60;99.90
8953;DHT22;4511;50.890;8.054;2022-11-15T15:25:19;12.50;99.90
8953;DHT22;4511;50.890;8.054;2022-11-15T15:27:46;12.50;99.90
8953;DHT22;4511;50.890;8.054;2022-11-15T15:30:15;12.40;99.90
8953;DHT22;4511;50.890;8.054;2022-11-15T15:32:42;12.40;99.90
8953;DHT22;4511;50.890;8.054;2022-11-15T15:35:11;12.40;99.90
8953;DHT22;4511;50.890;8.054;2022-11-15T15:37:39;12.40;99.90
8953;DHT22;4511;50.890;8.054;2022-11-15T15:40:14;12.40;99.90
8953;DHT22;4511;50.890;8.054;2022-11-15T15:42:42;12.30;99.90
8953;DHT22;4511;50.890;8.054;2022-11-15T15:45:09;12.30;99.90
8953;DHT22;4511;50.890;8.054;2022-11-15T15:47:38;12.30;99.90
8953;DHT22;4511;50.890;8.054;2022-11-15T15:50:14;12.30;99.90
8953;DHT22;4511;50.890;8.054;2022-11-15T15:52:43;12.30;99.90
8953;DHT22;4511;50.890;8.054;2022-11-15T15:55:10;12.30;99.90
8953;DHT22;4511;50.890;8.054;2022-11-15T15:57:37;12.20;99.90
8953;DHT22;4511;50.890;8.054;2022-11-15T16:00:05;12.20;99.90
8953;DHT22;4511;50.890;8.054;2022-11-15T16:02:32;12.10;99.90
8953;DHT22;4511;50.890;8.054;2022-11-15T16:05:02;12.10;99.90
8953;DHT22;4511;50.890;8.054;2022-11-15T16:07:29;12.10;99.90
8953;DHT22;4511;50.890;8.054;2022-11-15T16:09:58;12.00;99.90
8953;DHT22;4511;50.890;8.054;2022-11-15T16:12:28;12.00;99.90
8953;DHT22;4511;50.890;8.054;2022-11-15T16:14:55;12.00;99.90
8953;DHT22;4511;50.890;8.054;2022-11-15T16:17:24;12.00;99.90
8953;DHT22;4511;50.890;8.054;2022-11-15T16:19:51;12.00;99.90
8953;DHT22;4511;50.890;8.054;2022-11-15T16:22:19;12.00;99.90
8953;DHT22;4511;50.890;8.054;2022-11-15T16:24:47;11.90;99.90
8953;DHT22;4511;50.890;8.054;2022-11-15T16:27:15;11.90;99.90
8953;DHT22;4511;50.890;8.054;2022-11-15T16:29:43;11.80;99.90
8953;DHT22;4511;50.890;8.054;2022-11-15T16:32:11;11.90;99.90
8953;DHT22;4511;50.890;8.054;2022-11-15T16:34:38;11.80;99.90